createdAt,value
2018-08-25T00:00:42.245Z,1.63
2018-08-25T00:03:10.654Z,1.60
2018-08-25T00:05:39.076Z,1.10
2018-08-25T00:08:07.509Z,1.47
2018-08-25T00:10:35.966Z,1.33
2018-08-25T00:13:04.404Z,1.70
2018-08-25T00:15:32.845Z,1.60
2018-08-25T00:18:01.238Z,1.80
2018-08-25T00:20:29.666Z,1.80
2018-08-25T00:22:58.086Z,2.20
2018-08-25T00:25:26.540Z,2.23
2018-08-25T00:27:54.965Z,1.87
2018-08-25T00:30:28.689Z,1.73
2018-08-25T00:32:57.100Z,1.70
2018-08-25T00:35:25.553Z,1.83
2018-08-25T00:37:54.014Z,1.40
2018-08-25T00:40:22.465Z,1.60
2018-08-25T00:42:50.896Z,1.47
2018-08-25T00:45:19.345Z,1.27
2018-08-25T00:47:47.876Z,1.67
2018-08-25T00:50:16.258Z,1.57
2018-08-25T00:52:44.715Z,1.53
2018-08-25T00:55:13.326Z,1.70
2018-08-25T00:57:41.725Z,1.73
2018-08-25T01:00:10.189Z,1.40
2018-08-25T01:02:38.631Z,1.50
2018-08-25T01:05:07.241Z,1.63
2018-08-25T01:07:35.693Z,1.30
2018-08-25T01:10:04.178Z,1.23
2018-08-25T01:12:32.578Z,1.30
2018-08-25T01:15:00.981Z,1.73
2018-08-25T01:17:29.405Z,1.10
2018-08-25T01:19:57.821Z,1.37
2018-08-25T01:22:26.274Z,1.53
2018-08-25T01:24:54.713Z,1.80
2018-08-25T01:27:23.121Z,1.53
2018-08-25T01:29:51.550Z,1.70
2018-08-25T01:32:19.933Z,1.20
2018-08-25T01:34:48.576Z,1.30
2018-08-25T01:37:16.987Z,1.70
2018-08-25T01:39:45.413Z,1.50
2018-08-25T01:42:13.797Z,1.53
2018-08-25T01:44:42.219Z,1.37
2018-08-25T01:47:10.705Z,1.40
2018-08-25T01:49:39.169Z,1.50
2018-08-25T01:52:07.679Z,1.50
2018-08-25T01:54:36.120Z,1.27
2018-08-25T01:57:04.578Z,1.17
2018-08-25T01:59:33.118Z,1.03
2018-08-25T02:02:01.543Z,1.40
2018-08-25T02:04:29.937Z,1.60
2018-08-25T02:06:58.375Z,1.83
2018-08-25T02:09:26.738Z,1.53
2018-08-25T02:11:55.101Z,1.57
2018-08-25T02:14:23.456Z,1.50
2018-08-25T02:16:51.909Z,1.87
2018-08-25T02:19:20.286Z,1.40
2018-08-25T02:21:48.661Z,1.63
2018-08-25T02:24:17.110Z,1.57
2018-08-25T02:26:45.487Z,1.60
2018-08-25T02:29:13.864Z,1.70
2018-08-25T02:31:42.284Z,1.77
2018-08-25T02:34:10.645Z,1.30
2018-08-25T02:36:39.066Z,1.47
2018-08-25T02:39:11.335Z,1.47
2018-08-25T02:41:39.755Z,1.27
2018-08-25T02:44:08.125Z,1.67
2018-08-25T02:46:36.606Z,1.27
2018-08-25T02:49:05.108Z,1.57
2018-08-25T02:51:33.492Z,1.87
2018-08-25T02:54:01.849Z,1.53
2018-08-25T02:56:30.226Z,1.93
2018-08-25T02:58:58.577Z,1.50
2018-08-25T03:01:26.966Z,1.90
2018-08-25T03:03:55.314Z,1.93
2018-08-25T03:06:23.713Z,2.13
2018-08-25T03:08:52.070Z,2.07
2018-08-25T03:11:20.472Z,1.57
2018-08-25T03:13:48.955Z,1.97
2018-08-25T03:16:17.266Z,1.47
2018-08-25T03:18:45.690Z,1.77
2018-08-25T03:21:14.090Z,1.87
2018-08-25T03:23:42.457Z,1.73
2018-08-25T03:26:10.854Z,1.90
2018-08-25T03:28:39.217Z,1.73
2018-08-25T03:31:07.617Z,1.80
2018-08-25T03:33:35.968Z,2.13
2018-08-25T03:36:04.365Z,1.90
2018-08-25T03:38:32.760Z,1.73
2018-08-25T03:41:01.154Z,2.10
2018-08-25T03:43:29.507Z,2.03
2018-08-25T03:45:57.933Z,1.70
2018-08-25T03:48:26.285Z,2.03
2018-08-25T03:50:54.694Z,1.97
2018-08-25T03:53:23.041Z,2.40
2018-08-25T03:55:51.457Z,2.40
2018-08-25T03:58:19.862Z,2.30
2018-08-25T04:00:48.281Z,2.10
2018-08-25T04:03:16.714Z,1.97
2018-08-25T04:05:45.188Z,1.87
2018-08-25T04:08:13.625Z,2.63
2018-08-25T04:10:42.100Z,2.47
2018-08-25T04:13:10.573Z,2.87
2018-08-25T04:15:38.979Z,2.20
2018-08-25T04:18:07.398Z,2.10
2018-08-25T04:20:35.818Z,1.97
2018-08-25T04:23:04.262Z,2.10
2018-08-25T04:25:32.665Z,2.20
2018-08-25T04:28:01.088Z,2.53
2018-08-25T04:30:29.517Z,2.10
2018-08-25T04:32:57.963Z,1.90
2018-08-25T04:35:26.341Z,2.10
2018-08-25T04:37:54.735Z,1.87
2018-08-25T04:40:23.143Z,2.07
2018-08-25T04:42:51.611Z,2.03
2018-08-25T04:45:20.001Z,1.70
2018-08-25T04:47:48.406Z,2.07
2018-08-25T04:50:16.782Z,2.30
2018-08-25T04:52:45.206Z,2.37
2018-08-25T04:55:13.581Z,1.67
2018-08-25T04:57:41.981Z,2.00
2018-08-25T05:00:10.381Z,2.27
2018-08-25T05:02:38.748Z,2.10
2018-08-25T05:05:07.093Z,2.60
2018-08-25T05:07:35.518Z,2.70
2018-08-25T05:10:04.177Z,2.90
2018-08-25T05:12:32.575Z,2.60
2018-08-25T05:15:00.958Z,2.10
2018-08-25T05:17:29.393Z,2.00
2018-08-25T05:19:57.779Z,2.73
2018-08-25T05:22:26.175Z,2.20
2018-08-25T05:24:54.609Z,2.10
2018-08-25T05:27:23.014Z,2.50
2018-08-25T05:29:51.473Z,2.40
2018-08-25T05:32:19.850Z,2.10
2018-08-25T05:34:48.206Z,2.43
2018-08-25T05:37:16.593Z,1.70
2018-08-25T05:39:44.949Z,1.40
2018-08-25T05:42:13.475Z,1.80
2018-08-25T05:44:41.838Z,1.80
2018-08-25T05:47:10.215Z,1.50
2018-08-25T05:49:38.584Z,1.60
2018-08-25T05:52:07.046Z,1.60
2018-08-25T05:54:35.424Z,1.40
2018-08-25T05:57:03.849Z,1.20
2018-08-25T05:59:32.224Z,0.90
2018-08-25T06:02:00.604Z,1.37
2018-08-25T06:04:28.976Z,0.97
2018-08-25T06:06:57.397Z,1.53
2018-08-25T06:09:25.773Z,1.03
2018-08-25T06:11:54.178Z,0.97
2018-08-25T06:14:22.574Z,1.57
2018-08-25T06:16:50.921Z,0.93
2018-08-25T06:19:19.404Z,1.63
2018-08-25T06:21:47.706Z,1.30
2018-08-25T06:24:16.090Z,1.30
2018-08-25T06:26:44.465Z,1.90
2018-08-25T06:29:12.879Z,1.63
2018-08-25T06:31:41.293Z,1.70
2018-08-25T06:34:09.749Z,1.50
2018-08-25T06:36:38.206Z,1.60
2018-08-25T06:39:08.347Z,2.10
2018-08-25T06:41:36.749Z,1.53
2018-08-25T06:44:05.214Z,2.23
2018-08-25T06:46:33.577Z,1.97
2018-08-25T06:49:02.026Z,2.00
2018-08-25T06:51:30.390Z,1.90
2018-08-25T06:53:58.834Z,2.43
2018-08-25T06:56:27.231Z,1.97
2018-08-25T06:58:55.621Z,2.63
2018-08-25T07:01:24.015Z,2.60
2018-08-25T07:03:52.467Z,2.00
2018-08-25T07:06:20.869Z,2.33
2018-08-25T07:08:49.237Z,2.30
2018-08-25T07:11:17.603Z,3.10
2018-08-25T07:13:45.982Z,2.33
2018-08-25T07:16:14.358Z,2.87
2018-08-25T07:18:42.812Z,2.20
2018-08-25T07:21:11.202Z,3.00
2018-08-25T07:23:39.569Z,2.40
2018-08-25T07:26:08.024Z,2.23
2018-08-25T07:28:36.437Z,2.57
2018-08-25T07:31:04.839Z,2.30
2018-08-25T07:33:33.230Z,1.83
2018-08-25T07:36:01.644Z,1.97
2018-08-25T07:38:30.047Z,1.90
2018-08-25T07:40:58.430Z,2.00
2018-08-25T07:43:26.852Z,1.80
2018-08-25T07:45:55.216Z,1.67
2018-08-25T07:48:23.606Z,1.47
2018-08-25T07:50:52.147Z,2.00
2018-08-25T07:53:20.505Z,1.17
2018-08-25T07:55:48.872Z,1.60
2018-08-25T07:58:17.256Z,1.83
2018-08-25T08:00:45.637Z,1.70
2018-08-25T08:03:14.038Z,1.63
2018-08-25T08:05:42.459Z,1.87
2018-08-25T08:08:10.833Z,1.60
2018-08-25T08:10:39.209Z,1.30
2018-08-25T08:13:07.615Z,1.43
2018-08-25T08:15:35.990Z,1.53
2018-08-25T08:18:04.391Z,1.77
2018-08-25T08:20:32.753Z,1.80
2018-08-25T08:23:01.101Z,1.60
2018-08-25T08:25:29.501Z,1.00
2018-08-25T08:27:57.853Z,1.27
2018-08-25T08:30:26.265Z,1.07
2018-08-25T08:32:54.772Z,1.67
2018-08-25T08:35:23.157Z,1.10
2018-08-25T08:37:51.501Z,1.23
2018-08-25T08:40:19.924Z,1.40
2018-08-25T08:42:48.290Z,1.70
2018-08-25T08:45:16.772Z,1.60
2018-08-25T08:47:45.094Z,1.37
2018-08-25T08:50:13.542Z,1.90
2018-08-25T08:52:41.876Z,2.27
2018-08-25T08:55:10.341Z,1.57
2018-08-25T08:57:38.941Z,2.17
2018-08-25T09:00:12.844Z,1.83
2018-08-25T09:02:41.222Z,1.60
2018-08-25T09:05:09.673Z,1.57
2018-08-25T09:07:38.018Z,1.20
2018-08-25T09:10:06.449Z,1.70
2018-08-25T09:12:35.095Z,1.90
2018-08-25T09:15:03.491Z,1.40
2018-08-25T09:17:31.928Z,1.50
2018-08-25T09:20:00.301Z,1.60
2018-08-25T09:22:28.649Z,1.40
2018-08-25T09:24:57.062Z,1.70
2018-08-25T09:27:25.826Z,1.13
2018-08-25T09:29:54.441Z,1.50
2018-08-25T09:32:22.867Z,0.80
2018-08-25T09:34:51.358Z,0.90
2018-08-25T09:37:19.707Z,1.03
2018-08-25T09:39:48.084Z,1.33
2018-08-25T09:42:16.520Z,1.17
2018-08-25T09:44:44.900Z,1.33
2018-08-25T09:47:13.278Z,1.50
2018-08-25T09:49:41.670Z,1.73
2018-08-25T09:52:10.042Z,1.30
2018-08-25T09:54:38.481Z,1.63
2018-08-25T09:57:06.909Z,1.23
2018-08-25T09:59:35.339Z,1.50
2018-08-25T10:02:07.069Z,1.13
2018-08-25T10:04:35.513Z,1.80
2018-08-25T10:07:03.962Z,2.00
2018-08-25T10:09:32.374Z,1.30
2018-08-25T10:12:00.865Z,2.30
2018-08-25T10:14:29.322Z,1.60
2018-08-25T10:16:57.868Z,2.80
2018-08-25T10:19:26.232Z,2.50
2018-08-25T10:21:54.681Z,3.00
2018-08-25T10:24:23.064Z,3.20
2018-08-25T10:26:51.469Z,3.10
2018-08-25T10:29:19.876Z,2.60
2018-08-25T10:31:48.288Z,2.60
2018-08-25T10:34:16.761Z,2.00
2018-08-25T10:36:45.178Z,2.17
2018-08-25T10:39:13.727Z,1.93
2018-08-25T10:41:42.472Z,2.50
2018-08-25T10:44:10.833Z,2.40
2018-08-25T10:46:39.989Z,2.03
2018-08-25T10:49:08.873Z,2.10
2018-08-25T10:51:37.642Z,2.30
2018-08-25T10:54:06.206Z,1.60
2018-08-25T10:56:34.630Z,2.10
2018-08-25T10:59:03.043Z,2.10
2018-08-25T11:01:31.551Z,1.87
2018-08-25T11:03:59.986Z,1.97
2018-08-25T11:06:28.420Z,2.10
2018-08-25T11:08:56.865Z,1.83
2018-08-25T11:11:25.498Z,2.20
2018-08-25T11:13:53.885Z,1.67
2018-08-25T11:16:22.324Z,1.40
2018-08-25T11:18:50.849Z,1.60
2018-08-25T11:21:19.286Z,1.33
2018-08-25T11:23:47.734Z,1.80
2018-08-25T11:26:16.115Z,1.40
2018-08-25T11:28:44.545Z,1.57
2018-08-25T11:31:12.961Z,1.53
2018-08-25T11:33:41.382Z,1.53
2018-08-25T11:36:09.853Z,0.90
2018-08-25T11:38:38.326Z,1.40
2018-08-25T11:41:06.762Z,1.27
2018-08-25T11:43:35.198Z,0.90
2018-08-25T11:46:03.641Z,1.73
2018-08-25T11:48:32.042Z,0.70
2018-08-25T11:51:00.457Z,1.00
2018-08-25T11:53:28.861Z,1.53
2018-08-25T11:55:57.336Z,1.33
2018-08-25T11:58:25.696Z,1.67
2018-08-25T12:00:54.193Z,1.30
2018-08-25T12:03:23.434Z,1.50
2018-08-25T12:05:51.846Z,1.90
2018-08-25T12:08:20.214Z,2.00
2018-08-25T12:10:48.603Z,1.90
2018-08-25T12:13:16.970Z,1.70
2018-08-25T12:15:45.357Z,1.33
2018-08-25T12:18:13.730Z,1.83
2018-08-25T12:20:42.138Z,1.37
2018-08-25T12:23:10.567Z,1.43
2018-08-25T12:25:38.981Z,1.63
2018-08-25T12:28:07.370Z,1.80
2018-08-25T12:30:35.749Z,1.00
2018-08-25T12:33:04.170Z,1.60
2018-08-25T12:35:32.571Z,1.40
2018-08-25T12:38:00.953Z,1.67
2018-08-25T12:40:29.321Z,1.33
2018-08-25T12:42:57.748Z,1.70
2018-08-25T12:45:26.132Z,1.63
2018-08-25T12:47:54.550Z,1.10
2018-08-25T12:50:22.919Z,0.80
2018-08-25T12:52:51.297Z,1.27
2018-08-25T12:55:19.694Z,1.47
2018-08-25T12:57:48.178Z,1.13
2018-08-25T13:00:16.545Z,1.00
2018-08-25T13:02:44.969Z,1.13
2018-08-25T13:05:13.317Z,1.00
2018-08-25T13:07:41.889Z,0.90
2018-08-25T13:10:10.307Z,1.60
2018-08-25T13:12:38.706Z,1.27
2018-08-25T13:15:07.725Z,1.43
2018-08-25T13:17:36.117Z,1.60
2018-08-25T13:20:04.699Z,1.40
2018-08-25T13:22:33.070Z,1.43
2018-08-25T13:25:01.519Z,1.50
2018-08-25T13:27:29.906Z,1.53
2018-08-25T13:29:58.265Z,1.17
2018-08-25T13:32:26.694Z,1.20
2018-08-25T13:34:55.088Z,1.40
2018-08-25T13:37:23.827Z,1.70
2018-08-25T13:39:52.277Z,1.57
2018-08-25T13:42:20.710Z,1.83
2018-08-25T13:44:49.102Z,1.30
2018-08-25T13:47:17.482Z,1.50
2018-08-25T13:49:45.882Z,1.37
2018-08-25T13:52:17.433Z,1.50
2018-08-25T13:54:45.894Z,1.20
2018-08-25T13:57:14.338Z,1.80
2018-08-25T13:59:42.906Z,1.43
2018-08-25T14:02:11.983Z,1.80
2018-08-25T14:04:40.369Z,2.02
2018-08-25T14:07:08.809Z,1.40
2018-08-25T14:09:37.241Z,1.70
2018-08-25T14:12:05.672Z,1.80
2018-08-25T14:14:34.133Z,2.00
2018-08-25T14:17:02.573Z,2.27
2018-08-25T14:19:31.006Z,2.30
2018-08-25T14:21:59.421Z,2.43
2018-08-25T14:24:27.829Z,2.47
2018-08-25T14:26:56.265Z,2.37
2018-08-25T14:29:24.689Z,2.33
2018-08-25T14:31:53.101Z,3.03
2018-08-25T14:34:23.013Z,3.50
2018-08-25T14:36:51.461Z,2.97
2018-08-25T14:39:19.890Z,3.30
2018-08-25T14:41:48.412Z,3.10
2018-08-25T14:44:16.771Z,3.40
2018-08-25T14:46:45.153Z,3.37
2018-08-25T14:49:13.573Z,3.67
2018-08-25T14:51:41.977Z,2.80
2018-08-25T14:54:10.409Z,2.37
2018-08-25T14:56:40.517Z,2.40
2018-08-25T14:59:08.914Z,2.33
2018-08-25T15:01:37.301Z,2.73
2018-08-25T15:04:05.702Z,3.00
2018-08-25T15:06:34.116Z,2.27
2018-08-25T15:09:02.494Z,1.97
2018-08-25T15:11:30.846Z,1.30
2018-08-25T15:13:59.269Z,1.60
2018-08-25T15:16:27.622Z,1.50
2018-08-25T15:18:56.043Z,1.43
2018-08-25T15:21:24.374Z,1.73
2018-08-25T15:23:52.762Z,2.20
2018-08-25T15:26:21.277Z,2.03
2018-08-25T15:28:49.645Z,1.13
2018-08-25T15:31:18.019Z,1.60
2018-08-25T15:33:46.443Z,1.50
2018-08-25T15:36:14.822Z,1.77
2018-08-25T15:38:43.233Z,1.90
2018-08-25T15:41:12.054Z,1.50
2018-08-25T15:43:40.482Z,1.73
2018-08-25T15:46:08.893Z,1.63
2018-08-25T15:48:37.302Z,2.00
2018-08-25T15:51:05.693Z,1.77
2018-08-25T15:53:34.074Z,1.80
2018-08-25T15:56:02.578Z,2.13
2018-08-25T15:58:31.038Z,2.07
2018-08-25T16:00:59.451Z,2.20
2018-08-25T16:03:27.898Z,2.30
2018-08-25T16:05:56.432Z,2.40
2018-08-25T16:08:25.125Z,1.43
2018-08-25T16:10:53.556Z,1.40
2018-08-25T16:13:22.895Z,1.50
2018-08-25T16:15:52.221Z,1.00
2018-08-25T16:18:20.709Z,1.00
2018-08-25T16:20:49.098Z,0.97
2018-08-25T16:23:17.545Z,1.30
2018-08-25T16:25:46.581Z,1.03
2018-08-25T16:28:15.037Z,1.17
2018-08-25T16:30:43.908Z,1.33
2018-08-25T16:33:12.337Z,1.63
2018-08-25T16:35:40.958Z,1.33
2018-08-25T16:38:09.418Z,1.23
2018-08-25T16:40:37.862Z,1.57
2018-08-25T16:43:06.314Z,1.70
2018-08-25T16:45:34.725Z,1.50
2018-08-25T16:48:03.149Z,1.50
2018-08-25T16:50:31.579Z,1.67
2018-08-25T16:53:00.023Z,1.90
2018-08-25T16:55:29.166Z,1.83
2018-08-25T16:57:57.621Z,1.87
2018-08-25T17:00:26.062Z,1.80
2018-08-25T17:02:54.667Z,1.80
2018-08-25T17:05:23.105Z,1.60
2018-08-25T17:07:54.643Z,1.40
2018-08-25T17:10:23.088Z,1.73
2018-08-25T17:12:51.709Z,1.53
2018-08-25T17:15:20.280Z,1.60
2018-08-25T17:17:48.550Z,2.00
2018-08-25T17:20:16.999Z,2.37
2018-08-25T17:22:45.459Z,1.63
2018-08-25T17:25:13.851Z,2.03
2018-08-25T17:27:42.342Z,2.23
2018-08-25T17:30:10.774Z,1.80
2018-08-25T17:32:39.281Z,1.63
2018-08-25T17:35:07.698Z,1.93
2018-08-25T17:37:36.094Z,2.30
2018-08-25T17:40:04.557Z,1.77
2018-08-25T17:42:32.934Z,1.43
2018-08-25T17:45:01.372Z,1.70
2018-08-25T17:47:29.745Z,1.60
2018-08-25T17:49:58.418Z,1.70
2018-08-25T17:52:26.933Z,1.43
2018-08-25T17:54:55.335Z,1.67
2018-08-25T17:57:23.858Z,1.47
2018-08-25T17:59:52.114Z,1.70
2018-08-25T18:05:29.573Z,1.77
2018-08-25T18:07:57.970Z,1.87
2018-08-25T18:10:29.402Z,1.80
2018-08-25T18:12:57.797Z,2.57
2018-08-25T18:15:26.198Z,2.30
2018-08-25T18:17:54.564Z,1.83
2018-08-25T18:20:22.938Z,2.37
2018-08-25T18:22:51.356Z,2.20
2018-08-25T18:25:19.791Z,2.07
2018-08-25T18:27:48.226Z,2.33
2018-08-25T18:30:16.699Z,2.27
2018-08-25T18:32:45.302Z,2.13
2018-08-25T18:35:13.904Z,2.50
2018-08-25T18:37:42.346Z,2.50
2018-08-25T18:40:10.820Z,2.63
2018-08-25T18:42:39.247Z,2.20
2018-08-25T18:45:07.917Z,1.90
2018-08-25T18:47:36.398Z,2.50
2018-08-25T18:50:05.081Z,2.37
2018-08-25T18:52:33.465Z,2.47
2018-08-25T18:55:01.899Z,2.33
2018-08-25T18:57:30.317Z,2.53
2018-08-25T18:59:58.726Z,2.70
2018-08-25T19:02:27.194Z,2.70
2018-08-25T19:04:59.069Z,2.83
2018-08-25T19:07:27.499Z,2.80
2018-08-25T19:09:55.913Z,2.70
2018-08-25T19:12:24.302Z,3.10
2018-08-25T19:14:52.758Z,3.80
2018-08-25T19:17:21.173Z,3.53
2018-08-25T19:19:49.604Z,2.83
2018-08-25T19:22:18.077Z,3.70
2018-08-25T19:24:46.501Z,3.97
2018-08-25T19:27:14.897Z,3.20
2018-08-25T19:29:43.338Z,2.77
2018-08-25T19:32:11.841Z,3.10
2018-08-25T19:34:49.157Z,2.80
2018-08-25T19:37:17.582Z,2.17
2018-08-25T19:39:46.024Z,2.50
2018-08-25T19:42:14.537Z,2.20
2018-08-25T19:44:42.962Z,2.10
2018-08-25T19:47:11.461Z,1.80
2018-08-25T19:49:39.816Z,2.17
2018-08-25T19:52:08.269Z,1.90
2018-08-25T19:54:36.654Z,1.67
2018-08-25T19:57:05.165Z,2.13
2018-08-25T19:59:33.514Z,2.90
2018-08-25T20:02:02.241Z,1.80
2018-08-25T20:04:30.653Z,1.73
2018-08-25T20:06:59.049Z,1.17
2018-08-25T20:09:28.303Z,2.30
2018-08-25T20:11:56.714Z,1.93
2018-08-25T20:14:26.298Z,2.00
2018-08-25T20:16:54.668Z,2.20
2018-08-25T20:19:23.031Z,2.07
2018-08-25T20:21:51.637Z,2.57
2018-08-25T20:24:20.012Z,2.30
2018-08-25T20:26:54.961Z,2.50
2018-08-25T20:29:23.340Z,2.47
2018-08-25T20:31:51.769Z,3.80
2018-08-25T20:34:20.137Z,3.90
2018-08-25T20:37:00.821Z,3.00
2018-08-25T20:39:29.188Z,2.70
2018-08-25T20:41:57.566Z,3.00
2018-08-25T20:44:25.939Z,3.27
2018-08-25T20:46:55.345Z,2.90
2018-08-25T20:49:23.721Z,3.20
2018-08-25T20:51:52.106Z,4.00
2018-08-25T20:54:20.486Z,3.57
2018-08-25T20:59:44.617Z,3.33
2018-08-25T21:02:12.994Z,3.57
2018-08-25T21:04:41.405Z,3.70
2018-08-25T21:07:09.854Z,4.03
2018-08-25T21:09:38.213Z,4.07
2018-08-25T21:12:06.662Z,3.73
2018-08-25T21:14:35.045Z,4.00
2018-08-25T21:17:03.528Z,3.93
2018-08-25T21:19:31.973Z,3.60
2018-08-25T21:22:00.325Z,3.30
2018-08-25T21:24:28.747Z,4.07
2018-08-25T21:26:57.116Z,4.00
2018-08-25T21:29:25.551Z,3.30
2018-08-25T21:31:54.973Z,3.67
2018-08-25T21:34:24.350Z,3.60
2018-08-25T21:37:02.588Z,3.40
2018-08-25T21:39:30.973Z,3.20
2018-08-25T21:42:10.219Z,3.03
2018-08-25T21:44:57.589Z,3.77
2018-08-25T21:47:26.038Z,3.67
2018-08-25T21:49:54.441Z,3.70
2018-08-25T21:52:22.797Z,3.37
2018-08-25T21:54:51.244Z,3.97
2018-08-25T21:57:19.649Z,3.70
2018-08-25T21:59:48.057Z,3.53
2018-08-25T22:02:17.314Z,3.60
2018-08-25T22:04:45.905Z,4.37
2018-08-25T22:07:14.338Z,3.60
2018-08-25T22:09:42.788Z,3.47
2018-08-25T22:12:11.270Z,3.90
2018-08-25T22:14:39.864Z,3.73
2018-08-25T22:17:08.345Z,3.70
2018-08-25T22:19:36.757Z,3.43
2018-08-25T22:22:05.181Z,4.07
2018-08-25T22:24:33.737Z,3.73
2018-08-25T22:27:02.163Z,3.87
2018-08-25T22:29:30.575Z,4.47
2018-08-25T22:31:59.023Z,3.73
2018-08-25T22:34:27.441Z,4.10
2018-08-25T22:36:55.851Z,4.53
2018-08-25T22:39:24.282Z,4.53
2018-08-25T22:41:52.674Z,4.10
2018-08-25T22:44:21.162Z,4.20
2018-08-25T22:46:49.579Z,3.90
2018-08-25T22:49:17.998Z,4.30
2018-08-25T22:51:46.406Z,4.70
2018-08-25T22:54:14.918Z,3.90
2018-08-25T22:56:43.357Z,4.07
2018-08-25T22:59:11.845Z,4.00
2018-08-25T23:01:40.295Z,4.23
2018-08-25T23:04:08.862Z,3.90
2018-08-25T23:06:37.256Z,3.93
2018-08-25T23:09:07.758Z,3.67
2018-08-25T23:11:36.218Z,3.73
2018-08-25T23:14:04.694Z,4.23
2018-08-25T23:16:33.149Z,3.90
2018-08-25T23:19:01.612Z,4.23
2018-08-25T23:21:30.134Z,4.37
2018-08-25T23:23:58.806Z,4.10
2018-08-25T23:26:27.281Z,4.10
2018-08-25T23:28:55.673Z,4.57
2018-08-25T23:31:24.083Z,4.10
2018-08-25T23:33:52.478Z,4.00
2018-08-25T23:36:20.923Z,4.20
2018-08-25T23:38:49.344Z,4.10
2018-08-25T23:41:17.825Z,4.07
2018-08-25T23:43:46.215Z,3.70
2018-08-25T23:46:14.613Z,4.00
2018-08-25T23:48:43.013Z,4.43
2018-08-25T23:51:11.408Z,4.33
2018-08-25T23:53:39.938Z,4.20
2018-08-25T23:56:08.390Z,4.10
2018-08-25T23:58:36.797Z,4.00
